sensor_id;sensor_type;location;lat;lon;timestamp;pressure;altitude;pressure_sealevel;temperature;humidity
9091;BME280;4581;42.416;25.598;2023-01-24T00:00:53;99764.59;;;4.58;100.00
9091;BME280;4581;42.416;25.598;2023-01-24T00:03:20;99771.25;;;4.53;100.00
9091;BME280;4581;42.416;25.598;2023-01-24T00:05:48;99766.00;;;4.39;100.00
9091;BME280;4581;42.416;25.598;2023-01-24T00:08:16;99765.78;;;4.16;100.00
9091;BME280;4581;42.416;25.598;2023-01-24T00:10:47;99771.84;;;4.18;100.00
9091;BME280;4581;42.416;25.598;2023-01-24T00:13:15;99774.75;;;4.15;100.00
9091;BME280;4581;42.416;25.598;2023-01-24T00:15:42;99776.25;;;4.19;100.00
9091;BME280;4581;42.416;25.598;2023-01-24T00:18:09;99773.16;;;4.13;100.00
9091;BME280;4581;42.416;25.598;2023-01-24T00:20:36;99776.97;;;4.09;100.00
9091;BME280;4581;42.416;25.598;2023-01-24T00:23:02;99774.59;;;3.92;100.00
9091;BME280;4581;42.416;25.598;2023-01-24T00:25:29;99772.66;;;3.94;100.00
9091;BME280;4581;42.416;25.598;2023-01-24T00:27:56;99771.69;;;3.82;100.00
9091;BME280;4581;42.416;25.598;2023-01-24T00:30:23;99777.13;;;3.81;100.00
9091;BME280;4581;42.416;25.598;2023-01-24T00:32:50;99776.06;;;3.83;100.00
9091;BME280;4581;42.416;25.598;2023-01-24T00:35:16;99772.44;;;3.84;100.00
9091;BME280;4581;42.416;25.598;2023-01-24T00:37:43;99772.44;;;3.84;100.00
9091;BME280;4581;42.416;25.598;2023-01-24T00:40:10;99768.63;;;3.88;100.00
9091;BME280;4581;42.416;25.598;2023-01-24T00:42:37;99769.81;;;3.97;100.00
9091;BME280;4581;42.416;25.598;2023-01-24T00:45:04;99766.38;;;3.95;100.00
9091;BME280;4581;42.416;25.598;2023-01-24T00:47:30;99775.16;;;3.97;100.00
9091;BME280;4581;42.416;25.598;2023-01-24T00:49:57;99770.53;;;3.99;100.00
9091;BME280;4581;42.416;25.598;2023-01-24T00:52:24;99775.84;;;3.86;100.00
9091;BME280;4581;42.416;25.598;2023-01-24T00:54:51;99770.00;;;3.94;100.00
9091;BME280;4581;42.416;25.598;2023-01-24T00:57:17;99771.41;;;3.99;100.00
9091;BME280;4581;42.416;25.598;2023-01-24T00:59:44;99767.56;;;4.03;100.00
9091;BME280;4581;42.416;25.598;2023-01-24T01:02:11;99770.78;;;4.08;100.00
9091;BME280;4581;42.416;25.598;2023-01-24T01:04:37;99778.88;;;4.07;100.00
9091;BME280;4581;42.416;25.598;2023-01-24T01:07:04;99772.03;;;4.03;100.00
9091;BME280;4581;42.416;25.598;2023-01-24T01:09:31;99773.84;;;4.02;100.00
9091;BME280;4581;42.416;25.598;2023-01-24T01:11:58;99783.28;;;4.08;100.00
9091;BME280;4581;42.416;25.598;2023-01-24T01:14:24;99776.13;;;4.08;100.00
9091;BME280;4581;42.416;25.598;2023-01-24T01:16:51;99784.66;;;4.01;100.00
9091;BME280;4581;42.416;25.598;2023-01-24T01:19:17;99778.16;;;4.05;100.00
9091;BME280;4581;42.416;25.598;2023-01-24T01:21:44;99778.78;;;4.08;100.00
9091;BME280;4581;42.416;25.598;2023-01-24T01:24:11;99780.03;;;3.90;100.00
9091;BME280;4581;42.416;25.598;2023-01-24T01:26:37;99776.84;;;3.98;100.00
9091;BME280;4581;42.416;25.598;2023-01-24T01:29:04;99778.34;;;4.02;100.00
9091;BME280;4581;42.416;25.598;2023-01-24T01:31:31;99773.31;;;3.85;100.00
9091;BME280;4581;42.416;25.598;2023-01-24T01:33:58;99780.22;;;3.87;100.00
9091;BME280;4581;42.416;25.598;2023-01-24T01:36:24;99773.09;;;3.88;100.00
9091;BME280;4581;42.416;25.598;2023-01-24T01:38:51;99771.81;;;3.93;100.00
9091;BME280;4581;42.416;25.598;2023-01-24T01:41:19;99778.44;;;3.88;100.00
9091;BME280;4581;42.416;25.598;2023-01-24T01:43:46;99774.59;;;3.92;100.00
9091;BME280;4581;42.416;25.598;2023-01-24T01:46:41;99786.69;;;3.70;100.00
9091;BME280;4581;42.416;25.598;2023-01-24T01:49:17;99777.72;;;3.71;100.00
9091;BME280;4581;42.416;25.598;2023-01-24T01:51:48;99773.13;;;3.73;100.00
9091;BME280;4581;42.416;25.598;2023-01-24T01:54:35;99774.13;;;3.72;100.00
9091;BME280;4581;42.416;25.598;2023-01-24T01:57:06;99777.72;;;3.71;100.00
9091;BME280;4581;42.416;25.598;2023-01-24T01:59:40;99783.66;;;3.62;100.00
9091;BME280;4581;42.416;25.598;2023-01-24T02:02:08;99776.22;;;3.67;100.00
9091;BME280;4581;42.416;25.598;2023-01-24T02:04:39;99778.69;;;3.70;100.00
9091;BME280;4581;42.416;25.598;2023-01-24T02:07:20;99769.38;;;3.63;100.00
9091;BME280;4581;42.416;25.598;2023-01-24T02:09:51;99771.28;;;3.61;100.00
9091;BME280;4581;42.416;25.598;2023-01-24T02:14:53;99782.94;;;3.60;100.00
9091;BME280;4581;42.416;25.598;2023-01-24T02:17:40;99776.28;;;3.53;100.00
9091;BME280;4581;42.416;25.598;2023-01-24T02:20:17;99775.53;;;3.51;100.00
9091;BME280;4581;42.416;25.598;2023-01-24T02:28:08;99788.50;;;3.43;100.00
9091;BME280;4581;42.416;25.598;2023-01-24T02:30:36;99793.06;;;3.41;100.00
9091;BME280;4581;42.416;25.598;2023-01-24T02:35:37;99795.91;;;3.52;100.00
9091;BME280;4581;42.416;25.598;2023-01-24T02:38:06;99798.88;;;3.48;100.00
9091;BME280;4581;42.416;25.598;2023-01-24T02:40:37;99793.19;;;3.40;100.00
9091;BME280;4581;42.416;25.598;2023-01-24T02:43:06;99788.22;;;3.34;100.00
9091;BME280;4581;42.416;25.598;2023-01-24T02:45:33;99796.94;;;3.50;100.00
9091;BME280;4581;42.416;25.598;2023-01-24T02:48:01;99802.41;;;3.48;100.00
9091;BME280;4581;42.416;25.598;2023-01-24T02:50:31;99796.19;;;3.48;100.00
9091;BME280;4581;42.416;25.598;2023-01-24T02:53:21;99773.97;;;3.35;100.00
9091;BME280;4581;42.416;25.598;2023-01-24T02:56:02;99788.78;;;3.39;100.00
9091;BME280;4581;42.416;25.598;2023-01-24T02:58:49;99782.03;;;3.33;100.00
9091;BME280;4581;42.416;25.598;2023-01-24T03:01:16;99793.97;;;3.27;100.00
9091;BME280;4581;42.416;25.598;2023-01-24T03:03:44;99786.34;;;3.21;100.00
9091;BME280;4581;42.416;25.598;2023-01-24T03:06:12;99783.16;;;3.16;100.00
9091;BME280;4581;42.416;25.598;2023-01-24T03:08:40;99782.66;;;3.10;100.00
9091;BME280;4581;42.416;25.598;2023-01-24T03:11:08;99792.28;;;2.98;100.00
9091;BME280;4581;42.416;25.598;2023-01-24T03:13:35;99783.94;;;2.90;100.00
9091;BME280;4581;42.416;25.598;2023-01-24T03:16:21;99789.56;;;3.00;100.00
9091;BME280;4581;42.416;25.598;2023-01-24T03:19:06;99787.47;;;3.05;100.00
9091;BME280;4581;42.416;25.598;2023-01-24T03:21:51;99792.78;;;3.05;100.00
9091;BME280;4581;42.416;25.598;2023-01-24T03:24:37;99785.25;;;2.97;100.00
9091;BME280;4581;42.416;25.598;2023-01-24T03:27:22;99792.41;;;2.97;100.00
9091;BME280;4581;42.416;25.598;2023-01-24T03:30:08;99800.69;;;2.92;100.00
9091;BME280;4581;42.416;25.598;2023-01-24T03:33:01;99782.81;;;2.80;100.00
9091;BME280;4581;42.416;25.598;2023-01-24T03:35:50;99794.91;;;2.71;100.00
9091;BME280;4581;42.416;25.598;2023-01-24T03:38:23;99789.75;;;2.68;100.00
9091;BME280;4581;42.416;25.598;2023-01-24T03:41:08;99793.25;;;2.69;100.00
9091;BME280;4581;42.416;25.598;2023-01-24T03:43:34;99791.84;;;2.77;100.00
9091;BME280;4581;42.416;25.598;2023-01-24T03:46:01;99792.69;;;2.78;100.00
9091;BME280;4581;42.416;25.598;2023-01-24T03:48:28;99802.28;;;2.95;100.00
9091;BME280;4581;42.416;25.598;2023-01-24T03:51:00;99794.97;;;2.98;100.00
9091;BME280;4581;42.416;25.598;2023-01-24T03:53:46;99792.47;;;3.09;100.00
9091;BME280;4581;42.416;25.598;2023-01-24T03:56:12;99784.97;;;3.16;100.00
9091;BME280;4581;42.416;25.598;2023-01-24T03:58:39;99798.84;;;3.07;100.00
9091;BME280;4581;42.416;25.598;2023-01-24T04:01:06;99800.75;;;3.19;100.00
9091;BME280;4581;42.416;25.598;2023-01-24T04:03:33;99787.41;;;3.19;100.00
9091;BME280;4581;42.416;25.598;2023-01-24T04:05:59;99794.63;;;3.31;100.00
9091;BME280;4581;42.416;25.598;2023-01-24T04:08:26;99798.81;;;3.35;100.00
9091;BME280;4581;42.416;25.598;2023-01-24T04:10:55;99800.91;;;3.30;100.00
9091;BME280;4581;42.416;25.598;2023-01-24T04:13:22;99792.91;;;3.30;100.00
9091;BME280;4581;42.416;25.598;2023-01-24T04:15:49;99798.84;;;3.21;100.00
9091;BME280;4581;42.416;25.598;2023-01-24T04:18:15;99799.44;;;3.12;100.00
9091;BME280;4581;42.416;25.598;2023-01-24T04:20:42;99798.84;;;3.07;100.00
9091;BME280;4581;42.416;25.598;2023-01-24T04:23:10;99795.41;;;3.19;100.00
9091;BME280;4581;42.416;25.598;2023-01-24T04:25:38;99802.59;;;3.04;100.00
9091;BME280;4581;42.416;25.598;2023-01-24T04:28:04;99798.19;;;3.03;100.00
9091;BME280;4581;42.416;25.598;2023-01-24T04:30:31;99801.31;;;3.10;100.00
9091;BME280;4581;42.416;25.598;2023-01-24T04:32:58;99799.31;;;3.13;100.00
9091;BME280;4581;42.416;25.598;2023-01-24T04:35:27;99789.44;;;3.01;100.00
9091;BME280;4581;42.416;25.598;2023-01-24T04:38:02;99801.22;;;3.11;100.00
9091;BME280;4581;42.416;25.598;2023-01-24T04:40:29;99799.44;;;3.12;100.00
9091;BME280;4581;42.416;25.598;2023-01-24T04:42:56;99799.63;;;3.09;100.00
9091;BME280;4581;42.416;25.598;2023-01-24T04:45:24;99805.03;;;3.07;100.00
9091;BME280;4581;42.416;25.598;2023-01-24T04:47:50;99807.06;;;3.04;100.00
9091;BME280;4581;42.416;25.598;2023-01-24T04:50:17;99812.38;;;3.04;100.00
9091;BME280;4581;42.416;25.598;2023-01-24T04:52:43;99803.81;;;2.99;100.00
9091;BME280;4581;42.416;25.598;2023-01-24T04:55:10;99808.41;;;2.97;100.00
9091;BME280;4581;42.416;25.598;2023-01-24T04:57:37;99797.06;;;2.93;100.00
9091;BME280;4581;42.416;25.598;2023-01-24T05:00:04;99811.72;;;3.00;100.00
9091;BME280;4581;42.416;25.598;2023-01-24T05:02:31;99810.94;;;2.98;100.00
9091;BME280;4581;42.416;25.598;2023-01-24T05:04:59;99813.53;;;3.00;100.00
9091;BME280;4581;42.416;25.598;2023-01-24T05:07:25;99816.94;;;3.02;100.00
9091;BME280;4581;42.416;25.598;2023-01-24T05:09:52;99823.13;;;2.88;100.00
9091;BME280;4581;42.416;25.598;2023-01-24T05:12:18;99819.13;;;2.95;100.00
9091;BME280;4581;42.416;25.598;2023-01-24T05:14:45;99817.69;;;3.04;100.00
9091;BME280;4581;42.416;25.598;2023-01-24T05:17:12;99831.97;;;3.03;100.00
9091;BME280;4581;42.416;25.598;2023-01-24T05:19:39;99817.69;;;2.90;100.00
9091;BME280;4581;42.416;25.598;2023-01-24T05:22:05;99825.31;;;2.96;100.00
9091;BME280;4581;42.416;25.598;2023-01-24T05:24:32;99833.78;;;3.02;100.00
9091;BME280;4581;42.416;25.598;2023-01-24T05:26:58;99835.13;;;2.95;99.32
9091;BME280;4581;42.416;25.598;2023-01-24T05:29:25;99837.69;;;2.97;99.71
9091;BME280;4581;42.416;25.598;2023-01-24T05:31:52;99834.44;;;2.92;99.25
9091;BME280;4581;42.416;25.598;2023-01-24T05:34:18;99835.97;;;2.96;99.59
9091;BME280;4581;42.416;25.598;2023-01-24T05:36:45;99828.94;;;2.95;99.46
9091;BME280;4581;42.416;25.598;2023-01-24T05:39:11;99822.94;;;2.91;99.89
9091;BME280;4581;42.416;25.598;2023-01-24T05:41:38;99841.19;;;2.97;99.21
9091;BME280;4581;42.416;25.598;2023-01-24T05:44:05;99840.16;;;3.00;99.11
9091;BME280;4581;42.416;25.598;2023-01-24T05:46:34;99847.94;;;3.03;99.09
9091;BME280;4581;42.416;25.598;2023-01-24T05:49:00;99851.69;;;3.00;98.85
9091;BME280;4581;42.416;25.598;2023-01-24T05:51:27;99847.50;;;2.96;98.55
9091;BME280;4581;42.416;25.598;2023-01-24T05:53:54;99845.56;;;2.98;99.21
9091;BME280;4581;42.416;25.598;2023-01-24T05:56:21;99850.03;;;2.98;99.52
9091;BME280;4581;42.416;25.598;2023-01-24T05:58:48;99839.66;;;2.93;99.27
9091;BME280;4581;42.416;25.598;2023-01-24T06:01:19;99855.09;;;3.02;99.42
9091;BME280;4581;42.416;25.598;2023-01-24T06:03:48;99849.66;;;3.04;99.46
9091;BME280;4581;42.416;25.598;2023-01-24T06:06:17;99859.19;;;3.08;99.67
9091;BME280;4581;42.416;25.598;2023-01-24T06:08:44;99861.19;;;3.04;99.55
9091;BME280;4581;42.416;25.598;2023-01-24T06:11:15;99858.31;;;3.07;98.45
9091;BME280;4581;42.416;25.598;2023-01-24T06:13:42;99859.19;;;3.08;98.67
9091;BME280;4581;42.416;25.598;2023-01-24T06:16:17;99858.41;;;3.06;98.92
9091;BME280;4581;42.416;25.598;2023-01-24T06:18:44;99860.41;;;3.02;98.77
9091;BME280;4581;42.416;25.598;2023-01-24T06:24:00;99861.66;;;3.11;98.35
9091;BME280;4581;42.416;25.598;2023-01-24T06:26:27;99865.91;;;3.13;98.77
9091;BME280;4581;42.416;25.598;2023-01-24T06:28:55;99868.03;;;3.08;98.20
9091;BME280;4581;42.416;25.598;2023-01-24T06:39:33;99863.16;;;3.15;98.45
9091;BME280;4581;42.416;25.598;2023-01-24T06:42:00;99871.53;;;3.23;98.55
9091;BME280;4581;42.416;25.598;2023-01-24T06:44:27;99872.28;;;3.25;97.25
9091;BME280;4581;42.416;25.598;2023-01-24T06:46:54;99874.28;;;3.21;97.30
9091;BME280;4581;42.416;25.598;2023-01-24T06:49:20;99871.94;;;3.17;97.00
9091;BME280;4581;42.416;25.598;2023-01-24T06:51:51;99870.41;;;3.13;97.44
9091;BME280;4581;42.416;25.598;2023-01-24T06:54:18;99865.16;;;3.11;97.26
9091;BME280;4581;42.416;25.598;2023-01-24T06:56:44;99869.72;;;3.09;97.69
9091;BME280;4581;42.416;25.598;2023-01-24T06:59:11;99878.19;;;3.02;97.15
9091;BME280;4581;42.416;25.598;2023-01-24T07:01:38;99874.38;;;3.06;97.58
9091;BME280;4581;42.416;25.598;2023-01-24T07:04:04;99878.28;;;3.14;98.12
9091;BME280;4581;42.416;25.598;2023-01-24T07:06:31;99876.13;;;3.21;98.00
9091;BME280;4581;42.416;25.598;2023-01-24T07:08:57;99876.88;;;3.23;97.79
9091;BME280;4581;42.416;25.598;2023-01-24T07:11:25;99871.53;;;3.23;97.33
9091;BME280;4581;42.416;25.598;2023-01-24T07:13:52;99887.91;;;3.31;97.08
9091;BME280;4581;42.416;25.598;2023-01-24T07:16:18;99892.66;;;3.12;96.89
9091;BME280;4581;42.416;25.598;2023-01-24T07:18:46;99889.16;;;3.11;97.38
9091;BME280;4581;42.416;25.598;2023-01-24T07:21:13;99893.41;;;3.14;97.77
9091;BME280;4581;42.416;25.598;2023-01-24T07:23:47;99870.97;;;3.04;97.00
9091;BME280;4581;42.416;25.598;2023-01-24T07:26:14;99896.09;;;3.14;97.34
9091;BME280;4581;42.416;25.598;2023-01-24T07:28:41;99886.09;;;3.03;96.80
9091;BME280;4581;42.416;25.598;2023-01-24T07:31:12;99901.03;;;3.20;97.06
9091;BME280;4581;42.416;25.598;2023-01-24T07:33:41;99898.38;;;3.20;97.38
9091;BME280;4581;42.416;25.598;2023-01-24T07:36:12;99901.59;;;3.25;96.89
9091;BME280;4581;42.416;25.598;2023-01-24T07:38:39;99897.25;;;3.24;96.50
9091;BME280;4581;42.416;25.598;2023-01-24T07:41:09;99902.38;;;3.13;96.21
9091;BME280;4581;42.416;25.598;2023-01-24T07:43:39;99908.66;;;3.12;96.36
9091;BME280;4581;42.416;25.598;2023-01-24T07:46:05;99915.72;;;3.13;96.39
9091;BME280;4581;42.416;25.598;2023-01-24T07:48:32;99905.78;;;3.15;96.69
9091;BME280;4581;42.416;25.598;2023-01-24T07:50:59;99916.63;;;3.26;96.35
9091;BME280;4581;42.416;25.598;2023-01-24T07:53:27;99904.84;;;3.16;96.32
9091;BME280;4581;42.416;25.598;2023-01-24T07:55:53;99911.50;;;3.23;96.47
9091;BME280;4581;42.416;25.598;2023-01-24T07:58:28;99901.81;;;3.08;95.90
9091;BME280;4581;42.416;25.598;2023-01-24T08:00:54;99916.44;;;3.15;95.73
9091;BME280;4581;42.416;25.598;2023-01-24T08:03:21;99913.22;;;3.24;96.17
9091;BME280;4581;42.416;25.598;2023-01-24T08:05:48;99921.97;;;3.26;95.85
9091;BME280;4581;42.416;25.598;2023-01-24T08:08:14;99916.06;;;3.35;96.08
9091;BME280;4581;42.416;25.598;2023-01-24T08:10:41;99920.25;;;3.39;95.55
9091;BME280;4581;42.416;25.598;2023-01-24T08:13:08;99927.97;;;3.44;95.79
9091;BME280;4581;42.416;25.598;2023-01-24T08:15:34;99928.91;;;3.43;95.69
9091;BME280;4581;42.416;25.598;2023-01-24T08:18:02;99938.34;;;3.48;94.64
9091;BME280;4581;42.416;25.598;2023-01-24T08:20:29;99937.28;;;3.51;94.68
9091;BME280;4581;42.416;25.598;2023-01-24T08:22:55;99950.78;;;3.62;94.76
9091;BME280;4581;42.416;25.598;2023-01-24T08:25:27;99949.25;;;3.72;94.56
9091;BME280;4581;42.416;25.598;2023-01-24T08:27:54;99961.16;;;3.66;92.48
9091;BME280;4581;42.416;25.598;2023-01-24T08:30:21;99958.00;;;3.74;92.98
9091;BME280;4581;42.416;25.598;2023-01-24T08:32:48;99941.72;;;3.78;93.61
9091;BME280;4581;42.416;25.598;2023-01-24T08:35:15;99951.59;;;3.91;93.07
9091;BME280;4581;42.416;25.598;2023-01-24T08:37:43;99948.72;;;3.94;91.88
9091;BME280;4581;42.416;25.598;2023-01-24T08:40:10;99949.28;;;3.99;91.80
9091;BME280;4581;42.416;25.598;2023-01-24T08:42:37;99948.06;;;4.04;92.02
9091;BME280;4581;42.416;25.598;2023-01-24T08:45:04;99952.03;;;4.11;91.69
9091;BME280;4581;42.416;25.598;2023-01-24T08:47:31;99950.88;;;4.15;91.73
9091;BME280;4581;42.416;25.598;2023-01-24T08:49:57;99952.66;;;4.29;92.12
9091;BME280;4581;42.416;25.598;2023-01-24T08:52:24;99948.81;;;4.33;92.21
9091;BME280;4581;42.416;25.598;2023-01-24T08:54:51;99953.94;;;4.36;91.43
9091;BME280;4581;42.416;25.598;2023-01-24T08:57:17;99945.44;;;4.44;91.11
9091;BME280;4581;42.416;25.598;2023-01-24T08:59:44;99942.31;;;4.37;88.65
9091;BME280;4581;42.416;25.598;2023-01-24T09:02:13;99936.78;;;4.40;88.32
9091;BME280;4581;42.416;25.598;2023-01-24T09:04:40;99926.44;;;4.48;89.01
9091;BME280;4581;42.416;25.598;2023-01-24T09:07:10;99926.56;;;4.59;89.13
9091;BME280;4581;42.416;25.598;2023-01-24T09:09:37;99930.72;;;4.63;89.65
9091;BME280;4581;42.416;25.598;2023-01-24T09:12:04;99924.34;;;4.79;89.07
9091;BME280;4581;42.416;25.598;2023-01-24T09:14:31;99923.94;;;4.85;89.65
9091;BME280;4581;42.416;25.598;2023-01-24T09:16:58;99927.78;;;4.81;86.33
9091;BME280;4581;42.416;25.598;2023-01-24T09:19:24;99918.88;;;4.67;85.32
9091;BME280;4581;42.416;25.598;2023-01-24T09:21:53;99920.28;;;4.73;86.65
9091;BME280;4581;42.416;25.598;2023-01-24T09:24:23;99914.63;;;4.65;85.59
9091;BME280;4581;42.416;25.598;2023-01-24T09:26:50;99917.59;;;4.60;86.62
9091;BME280;4581;42.416;25.598;2023-01-24T09:29:17;99926.91;;;4.67;86.83
9091;BME280;4581;42.416;25.598;2023-01-24T09:31:43;99923.59;;;4.77;86.49
9091;BME280;4581;42.416;25.598;2023-01-24T09:34:10;99921.88;;;4.76;85.76
9091;BME280;4581;42.416;25.598;2023-01-24T09:36:37;99911.81;;;4.66;85.26
9091;BME280;4581;42.416;25.598;2023-01-24T09:39:03;99914.09;;;4.72;86.06
9091;BME280;4581;42.416;25.598;2023-01-24T09:41:55;99913.97;;;4.74;85.25
9091;BME280;4581;42.416;25.598;2023-01-24T09:44:39;99915.25;;;4.68;85.68
9091;BME280;4581;42.416;25.598;2023-01-24T09:49:55;99900.94;;;4.82;84.77
9091;BME280;4581;42.416;25.598;2023-01-24T09:52:45;99898.91;;;4.98;85.01
9091;BME280;4581;42.416;25.598;2023-01-24T09:55:34;99899.69;;;5.13;84.05
9091;BME280;4581;42.416;25.598;2023-01-24T09:58:22;99896.66;;;5.30;84.32
9091;BME280;4581;42.416;25.598;2023-01-24T10:00:55;99893.03;;;5.31;83.07
9091;BME280;4581;42.416;25.598;2023-01-24T10:03:22;99900.50;;;5.26;81.65
9091;BME280;4581;42.416;25.598;2023-01-24T10:05:52;99898.50;;;5.17;81.66
9091;BME280;4581;42.416;25.598;2023-01-24T10:16:47;99877.09;;;5.66;82.20
9091;BME280;4581;42.416;25.598;2023-01-24T10:25:13;99871.28;;;5.97;79.00
9091;BME280;4581;42.416;25.598;2023-01-24T10:27:43;99870.19;;;6.24;79.00
9091;BME280;4581;42.416;25.598;2023-01-24T10:30:20;99866.88;;;6.55;76.53
9091;BME280;4581;42.416;25.598;2023-01-24T10:32:52;99868.94;;;6.97;75.09
9091;BME280;4581;42.416;25.598;2023-01-24T10:35:26;99865.88;;;7.58;73.43
9091;BME280;4581;42.416;25.598;2023-01-24T10:37:58;99861.00;;;7.74;70.82
9091;BME280;4581;42.416;25.598;2023-01-24T10:40:26;99850.47;;;7.71;68.31
9091;BME280;4581;42.416;25.598;2023-01-24T10:42:54;99853.09;;;7.28;68.24
9091;BME280;4581;42.416;25.598;2023-01-24T10:51:16;99843.94;;;6.86;73.19
9091;BME280;4581;42.416;25.598;2023-01-24T10:53:43;99841.50;;;7.16;74.89
9091;BME280;4581;42.416;25.598;2023-01-24T10:56:12;99837.13;;;7.37;73.76
9091;BME280;4581;42.416;25.598;2023-01-24T10:59:10;99843.72;;;7.33;71.32
9091;BME280;4581;42.416;25.598;2023-01-24T11:01:43;99832.47;;;6.95;69.39
9091;BME280;4581;42.416;25.598;2023-01-24T11:04:17;99835.34;;;6.58;69.70
9091;BME280;4581;42.416;25.598;2023-01-24T11:06:47;99831.97;;;6.22;68.62
9091;BME280;4581;42.416;25.598;2023-01-24T11:09:16;99827.91;;;6.16;70.56
9091;BME280;4581;42.416;25.598;2023-01-24T11:11:49;99792.78;;;5.49;71.77
9091;BME280;4581;42.416;25.598;2023-01-24T11:14:20;99810.59;;;5.61;74.15
9091;BME280;4581;42.416;25.598;2023-01-24T11:16:50;99816.19;;;5.46;74.51
9091;BME280;4581;42.416;25.598;2023-01-24T11:19:29;99796.50;;;5.47;76.15
9091;BME280;4581;42.416;25.598;2023-01-24T11:22:00;99805.25;;;5.61;76.69
9091;BME280;4581;42.416;25.598;2023-01-24T11:24:28;99806.25;;;5.72;78.33
9091;BME280;4581;42.416;25.598;2023-01-24T11:26:57;99808.75;;;5.62;76.32
9091;BME280;4581;42.416;25.598;2023-01-24T11:29:24;99798.41;;;5.57;78.14
9091;BME280;4581;42.416;25.598;2023-01-24T11:31:53;99791.94;;;5.73;78.54
9091;BME280;4581;42.416;25.598;2023-01-24T11:41:54;99778.41;;;5.74;76.68
9091;BME280;4581;42.416;25.598;2023-01-24T11:47:04;99786.91;;;5.68;74.42
9091;BME280;4581;42.416;25.598;2023-01-24T11:58:13;99792.66;;;5.98;73.95
9091;BME280;4581;42.416;25.598;2023-01-24T12:00:39;99788.84;;;5.90;72.98
9091;BME280;4581;42.416;25.598;2023-01-24T12:06:02;99783.75;;;5.50;73.87
9091;BME280;4581;42.416;25.598;2023-01-24T12:08:43;99787.34;;;5.38;73.81
9091;BME280;4581;42.416;25.598;2023-01-24T12:22:22;99777.50;;;5.62;77.58
9091;BME280;4581;42.416;25.598;2023-01-24T12:24:54;99772.16;;;5.62;77.77
9091;BME280;4581;42.416;25.598;2023-01-24T12:27:25;99787.53;;;5.72;78.86
9091;BME280;4581;42.416;25.598;2023-01-24T12:30:00;99786.69;;;5.71;79.00
9091;BME280;4581;42.416;25.598;2023-01-24T12:32:40;99776.94;;;5.70;79.84
9091;BME280;4581;42.416;25.598;2023-01-24T12:35:32;99783.47;;;5.42;81.31
9091;BME280;4581;42.416;25.598;2023-01-24T12:40:59;99781.69;;;5.30;81.84
9091;BME280;4581;42.416;25.598;2023-01-24T12:46:15;99786.88;;;5.21;81.52
9091;BME280;4581;42.416;25.598;2023-01-24T12:49:00;99793.38;;;5.29;83.11
9091;BME280;4581;42.416;25.598;2023-01-24T12:51:47;99787.59;;;5.23;83.04
9091;BME280;4581;42.416;25.598;2023-01-24T12:54:21;99785.97;;;5.33;84.00
9091;BME280;4581;42.416;25.598;2023-01-24T12:56:55;99789.03;;;5.39;82.08
9091;BME280;4581;42.416;25.598;2023-01-24T12:59:27;99793.22;;;5.43;82.03
9091;BME280;4581;42.416;25.598;2023-01-24T13:08:27;99785.84;;;5.34;79.34
9091;BME280;4581;42.416;25.598;2023-01-24T13:13:44;99794.50;;;5.38;81.14
9091;BME280;4581;42.416;25.598;2023-01-24T13:19:01;99794.34;;;5.28;79.53
9091;BME280;4581;42.416;25.598;2023-01-24T13:27:25;99791.69;;;5.15;80.32
9091;BME280;4581;42.416;25.598;2023-01-24T13:32:32;99788.94;;;4.92;80.74
9091;BME280;4581;42.416;25.598;2023-01-24T13:37:41;99794.59;;;5.00;80.79
9091;BME280;4581;42.416;25.598;2023-01-24T13:42:41;99797.91;;;5.03;79.87
9091;BME280;4581;42.416;25.598;2023-01-24T13:47:53;99798.47;;;4.96;79.50
9091;BME280;4581;42.416;25.598;2023-01-24T13:50:22;99803.56;;;4.99;80.44
9091;BME280;4581;42.416;25.598;2023-01-24T13:52:51;99804.53;;;4.98;78.83
9091;BME280;4581;42.416;25.598;2023-01-24T13:57:46;99806.25;;;4.86;80.96
9091;BME280;4581;42.416;25.598;2023-01-24T14:00:17;99805.63;;;4.95;81.63
9091;BME280;4581;42.416;25.598;2023-01-24T14:10:45;99802.00;;;4.84;82.36
9091;BME280;4581;42.416;25.598;2023-01-24T14:16:57;99808.59;;;4.91;83.08
9091;BME280;4581;42.416;25.598;2023-01-24T14:24:37;99814.91;;;4.90;83.27
9091;BME280;4581;42.416;25.598;2023-01-24T14:29:43;99807.13;;;4.87;84.40
9091;BME280;4581;42.416;25.598;2023-01-24T14:32:24;99798.78;;;4.79;84.80
9091;BME280;4581;42.416;25.598;2023-01-24T14:34:59;99797.50;;;4.84;85.16
9091;BME280;4581;42.416;25.598;2023-01-24T14:37:30;99801.13;;;4.83;84.72
9091;BME280;4581;42.416;25.598;2023-01-24T14:40:30;99800.81;;;4.88;85.51
9091;BME280;4581;42.416;25.598;2023-01-24T14:42:59;99807.88;;;4.89;85.35
9091;BME280;4581;42.416;25.598;2023-01-24T14:45:29;99815.66;;;4.92;85.42
9091;BME280;4581;42.416;25.598;2023-01-24T14:47:57;99812.44;;;4.99;85.56
9091;BME280;4581;42.416;25.598;2023-01-24T14:50:29;99816.84;;;4.88;84.01
9091;BME280;4581;42.416;25.598;2023-01-24T14:52:57;99814.91;;;4.90;83.94
9091;BME280;4581;42.416;25.598;2023-01-24T14:55:36;99817.56;;;4.90;84.64
9091;BME280;4581;42.416;25.598;2023-01-24T14:58:15;99821.00;;;4.92;84.98
9091;BME280;4581;42.416;25.598;2023-01-24T15:00:45;99810.09;;;4.82;85.24
9091;BME280;4581;42.416;25.598;2023-01-24T15:03:18;99803.50;;;4.75;87.80
9091;BME280;4581;42.416;25.598;2023-01-24T15:05:53;99814.19;;;4.62;88.10
9091;BME280;4581;42.416;25.598;2023-01-24T15:08:20;99819.97;;;4.56;89.55
9091;BME280;4581;42.416;25.598;2023-01-24T15:11:03;99817.81;;;4.36;89.88
9091;BME280;4581;42.416;25.598;2023-01-24T15:13:35;99814.19;;;4.37;89.98
9091;BME280;4581;42.416;25.598;2023-01-24T15:16:16;99819.31;;;4.40;90.93
9091;BME280;4581;42.416;25.598;2023-01-24T15:18:46;99823.13;;;4.36;91.00
9091;BME280;4581;42.416;25.598;2023-01-24T15:21:21;99819.19;;;4.29;91.47
9091;BME280;4581;42.416;25.598;2023-01-24T15:23:50;99824.84;;;4.24;91.13
9091;BME280;4581;42.416;25.598;2023-01-24T15:26:22;99819.16;;;4.16;91.21
9091;BME280;4581;42.416;25.598;2023-01-24T15:28:49;99821.50;;;4.08;91.78
9091;BME280;4581;42.416;25.598;2023-01-24T15:31:21;99809.19;;;4.06;92.50
9091;BME280;4581;42.416;25.598;2023-01-24T15:33:59;99819.69;;;4.09;91.83
9091;BME280;4581;42.416;25.598;2023-01-24T15:36:31;99824.25;;;4.07;90.12
9091;BME280;4581;42.416;25.598;2023-01-24T15:38:59;99838.47;;;4.20;89.50
9091;BME280;4581;42.416;25.598;2023-01-24T15:41:28;99832.59;;;4.15;88.05
9091;BME280;4581;42.416;25.598;2023-01-24T15:44:16;99835.25;;;4.15;87.93
9091;BME280;4581;42.416;25.598;2023-01-24T15:46:44;99836.13;;;4.15;88.16